sensor_id;sensor_type;location;lat;lon;timestamp;pressure;altitude;pressure_sealevel;temperature;humidity
54876;BME280;40764;48.472;8.166;2023-03-18T00:01:54;97812.34;;;8.61;74.80
54876;BME280;40764;48.472;8.166;2023-03-18T00:07:54;97803.28;;;8.65;73.45
54876;BME280;40764;48.472;8.166;2023-03-18T00:13:56;97814.25;;;8.60;74.75
54876;BME280;40764;48.472;8.166;2023-03-18T00:19:57;97826.41;;;8.49;75.59
54876;BME280;40764;48.472;8.166;2023-03-18T00:26:04;97827.06;;;8.36;76.43
54876;BME280;40764;48.472;8.166;2023-03-18T00:32:05;97833.72;;;8.25;76.84
54876;BME280;40764;48.472;8.166;2023-03-18T00:38:06;97833.91;;;8.33;76.44
54876;BME280;40764;48.472;8.166;2023-03-18T00:44:07;97843.56;;;8.21;77.47
54876;BME280;40764;48.472;8.166;2023-03-18T00:50:11;97844.22;;;8.07;77.41
54876;BME280;40764;48.472;8.166;2023-03-18T00:56:12;97832.25;;;8.08;76.12
54876;BME280;40764;48.472;8.166;2023-03-18T01:02:13;97847.44;;;8.15;76.29
54876;BME280;40764;48.472;8.166;2023-03-18T01:08:13;97854.16;;;8.22;75.92
54876;BME280;40764;48.472;8.166;2023-03-18T01:14:14;97841.94;;;8.20;76.11
54876;BME280;40764;48.472;8.166;2023-03-18T01:20:17;97837.19;;;8.30;74.75
54876;BME280;40764;48.472;8.166;2023-03-18T01:26:18;97840.84;;;8.21;74.84
54876;BME280;40764;48.472;8.166;2023-03-18T01:32:19;97823.88;;;8.29;74.54
54876;BME280;40764;48.472;8.166;2023-03-18T01:38:19;97822.16;;;8.09;74.79
54876;BME280;40764;48.472;8.166;2023-03-18T01:44:22;97811.22;;;7.90;75.78
54876;BME280;40764;48.472;8.166;2023-03-18T01:50:32;97814.31;;;7.78;76.51
54876;BME280;40764;48.472;8.166;2023-03-18T01:56:34;97805.63;;;7.76;76.26
54876;BME280;40764;48.472;8.166;2023-03-18T02:02:40;97812.78;;;7.67;77.19
54876;BME280;40764;48.472;8.166;2023-03-18T02:08:41;97804.97;;;7.61;77.65
54876;BME280;40764;48.472;8.166;2023-03-18T02:14:42;97816.31;;;7.97;75.56
54876;BME280;40764;48.472;8.166;2023-03-18T02:27:27;97821.91;;;7.82;76.06
54876;BME280;40764;48.472;8.166;2023-03-18T02:33:33;97820.94;;;7.96;75.45
54876;BME280;40764;48.472;8.166;2023-03-18T02:39:34;97815.38;;;7.83;76.16
54876;BME280;40764;48.472;8.166;2023-03-18T02:45:43;97816.19;;;7.83;76.29
54876;BME280;40764;48.472;8.166;2023-03-18T02:51:46;97821.63;;;7.83;75.67
54876;BME280;40764;48.472;8.166;2023-03-18T02:57:47;97815.16;;;7.74;76.38
54876;BME280;40764;48.472;8.166;2023-03-18T03:03:48;97818.13;;;7.77;75.65
54876;BME280;40764;48.472;8.166;2023-03-18T03:09:48;97819.47;;;7.80;75.67
54876;BME280;40764;48.472;8.166;2023-03-18T03:15:49;97827.84;;;7.89;74.98
54876;BME280;40764;48.472;8.166;2023-03-18T03:21:49;97843.41;;;7.83;75.87
54876;BME280;40764;48.472;8.166;2023-03-18T03:27:49;97840.47;;;8.03;75.36
54876;BME280;40764;48.472;8.166;2023-03-18T03:33:50;97844.41;;;7.92;75.99
54876;BME280;40764;48.472;8.166;2023-03-18T03:39:50;97831.06;;;7.91;75.45
54876;BME280;40764;48.472;8.166;2023-03-18T03:45:50;97849.59;;;7.89;76.14
54876;BME280;40764;48.472;8.166;2023-03-18T03:51:51;97847.41;;;7.91;75.35
54876;BME280;40764;48.472;8.166;2023-03-18T03:57:51;97842.41;;;7.69;76.12
54876;BME280;40764;48.472;8.166;2023-03-18T04:03:51;97850.06;;;7.67;76.77
54876;BME280;40764;48.472;8.166;2023-03-18T04:09:52;97844.72;;;7.57;76.77
54876;BME280;40764;48.472;8.166;2023-03-18T04:15:54;97852.88;;;7.57;77.37
54876;BME280;40764;48.472;8.166;2023-03-18T04:21:55;97860.41;;;7.65;76.77
54876;BME280;40764;48.472;8.166;2023-03-18T04:27:56;97855.53;;;7.28;78.54
54876;BME280;40764;48.472;8.166;2023-03-18T04:33:56;97862.59;;;7.29;78.73
54876;BME280;40764;48.472;8.166;2023-03-18T04:39:56;97870.19;;;7.32;78.68
54876;BME280;40764;48.472;8.166;2023-03-18T04:45:58;97876.72;;;7.31;78.51
54876;BME280;40764;48.472;8.166;2023-03-18T04:51:59;97873.91;;;7.02;79.56
54876;BME280;40764;48.472;8.166;2023-03-18T04:57:59;97861.97;;;6.93;80.08
54876;BME280;40764;48.472;8.166;2023-03-18T05:03:59;97868.84;;;6.80;80.71
54876;BME280;40764;48.472;8.166;2023-03-18T05:10:00;97863.66;;;6.83;80.29
54876;BME280;40764;48.472;8.166;2023-03-18T05:16:01;97862.63;;;6.69;80.49
54876;BME280;40764;48.472;8.166;2023-03-18T05:22:01;97855.16;;;6.41;81.56
54876;BME280;40764;48.472;8.166;2023-03-18T05:28:01;97857.84;;;6.41;81.75
54876;BME280;40764;48.472;8.166;2023-03-18T05:34:02;97863.81;;;6.43;81.54
54876;BME280;40764;48.472;8.166;2023-03-18T05:40:03;97869.31;;;6.22;81.67
54876;BME280;40764;48.472;8.166;2023-03-18T05:46:08;97875.53;;;6.28;82.03
54876;BME280;40764;48.472;8.166;2023-03-18T05:52:09;97870.97;;;6.13;82.35
54876;BME280;40764;48.472;8.166;2023-03-18T05:58:09;97867.44;;;6.13;82.08
54876;BME280;40764;48.472;8.166;2023-03-18T06:04:10;97878.25;;;6.28;81.50
54876;BME280;40764;48.472;8.166;2023-03-18T06:10:11;97883.69;;;6.23;81.49
54876;BME280;40764;48.472;8.166;2023-03-18T06:16:11;97881.22;;;6.27;81.68
54876;BME280;40764;48.472;8.166;2023-03-18T06:22:14;97875.75;;;6.47;80.74
54876;BME280;40764;48.472;8.166;2023-03-18T06:28:15;97884.19;;;6.45;80.76
54876;BME280;40764;48.472;8.166;2023-03-18T06:34:16;97886.25;;;6.74;79.76
54876;BME280;40764;48.472;8.166;2023-03-18T06:40:16;97884.84;;;6.81;79.24
54876;BME280;40764;48.472;8.166;2023-03-18T06:46:17;97889.69;;;6.90;78.91
54876;BME280;40764;48.472;8.166;2023-03-18T06:52:17;97887.44;;;7.07;78.29
54876;BME280;40764;48.472;8.166;2023-03-18T06:58:18;97893.81;;;7.36;77.66
54876;BME280;40764;48.472;8.166;2023-03-18T07:04:18;97891.31;;;7.79;75.94
54876;BME280;40764;48.472;8.166;2023-03-18T07:10:26;97894.16;;;8.27;74.25
54876;BME280;40764;48.472;8.166;2023-03-18T07:16:28;97890.25;;;8.38;74.85
54876;BME280;40764;48.472;8.166;2023-03-18T07:22:30;97895.63;;;8.72;74.50
54876;BME280;40764;48.472;8.166;2023-03-18T07:28:30;97897.03;;;8.88;73.00
54876;BME280;40764;48.472;8.166;2023-03-18T07:34:31;97890.00;;;9.06;72.88
54876;BME280;40764;48.472;8.166;2023-03-18T07:40:32;97892.81;;;9.20;72.64
54876;BME280;40764;48.472;8.166;2023-03-18T07:46:32;97892.59;;;9.54;70.87
54876;BME280;40764;48.472;8.166;2023-03-18T07:52:32;97879.53;;;10.02;68.77
54876;BME280;40764;48.472;8.166;2023-03-18T07:58:33;97879.34;;;11.13;56.94
54876;BME280;40764;48.472;8.166;2023-03-18T08:04:33;97894.13;;;11.62;53.18
54876;BME280;40764;48.472;8.166;2023-03-18T08:10:34;97892.31;;;11.94;52.63
54876;BME280;40764;48.472;8.166;2023-03-18T08:16:35;97891.81;;;12.45;50.01
54876;BME280;40764;48.472;8.166;2023-03-18T08:22:36;97897.94;;;12.73;49.39
54876;BME280;40764;48.472;8.166;2023-03-18T08:28:36;97894.44;;;12.98;47.03
54876;BME280;40764;48.472;8.166;2023-03-18T08:34:37;97896.91;;;13.09;44.31
54876;BME280;40764;48.472;8.166;2023-03-18T08:40:39;97898.56;;;13.18;44.49
54876;BME280;40764;48.472;8.166;2023-03-18T08:46:40;97896.19;;;13.34;43.86
54876;BME280;40764;48.472;8.166;2023-03-18T08:52:40;97894.91;;;13.57;43.06
54876;BME280;40764;48.472;8.166;2023-03-18T08:58:41;97897.69;;;13.66;42.03
54876;BME280;40764;48.472;8.166;2023-03-18T09:04:44;97896.34;;;13.55;41.26
54876;BME280;40764;48.472;8.166;2023-03-18T09:10:45;97876.81;;;13.74;41.75
54876;BME280;40764;48.472;8.166;2023-03-18T09:16:45;97881.31;;;14.04;41.15
54876;BME280;40764;48.472;8.166;2023-03-18T09:22:46;97874.00;;;14.43;40.58
54876;BME280;40764;48.472;8.166;2023-03-18T09:28:46;97869.25;;;14.61;40.14
54876;BME280;40764;48.472;8.166;2023-03-18T09:34:47;97881.25;;;14.56;39.43
54876;BME280;40764;48.472;8.166;2023-03-18T09:53:22;97867.66;;;15.18;38.37
54876;BME280;40764;48.472;8.166;2023-03-18T10:05:40;97872.03;;;15.70;38.74
54876;BME280;40764;48.472;8.166;2023-03-18T10:11:48;97869.47;;;15.86;36.89
54876;BME280;40764;48.472;8.166;2023-03-18T10:18:01;97874.38;;;16.01;36.17
54876;BME280;40764;48.472;8.166;2023-03-18T10:24:08;97858.59;;;16.22;35.96
54876;BME280;40764;48.472;8.166;2023-03-18T10:42:49;97853.56;;;16.82;35.42
54876;BME280;40764;48.472;8.166;2023-03-18T10:48:55;97846.59;;;16.51;35.79
54876;BME280;40764;48.472;8.166;2023-03-18T10:54:58;97846.41;;;16.68;35.28
54876;BME280;40764;48.472;8.166;2023-03-18T11:00:59;97845.03;;;16.75;33.19
54876;BME280;40764;48.472;8.166;2023-03-18T11:07:05;97840.09;;;17.17;34.69
54876;BME280;40764;48.472;8.166;2023-03-18T11:13:15;97834.91;;;17.03;31.78
54876;BME280;40764;48.472;8.166;2023-03-18T11:19:35;97828.91;;;17.25;31.97
54876;BME280;40764;48.472;8.166;2023-03-18T11:25:38;97819.81;;;17.25;32.74
54876;BME280;40764;48.472;8.166;2023-03-18T11:31:47;97814.13;;;17.46;32.04
54876;BME280;40764;48.472;8.166;2023-03-18T11:37:49;97806.81;;;17.65;31.91
54876;BME280;40764;48.472;8.166;2023-03-18T11:43:58;97809.00;;;17.72;30.99
54876;BME280;40764;48.472;8.166;2023-03-18T11:50:01;97808.59;;;17.86;31.42
54876;BME280;40764;48.472;8.166;2023-03-18T11:56:22;97807.59;;;17.78;31.48
54876;BME280;40764;48.472;8.166;2023-03-18T12:14:56;97786.84;;;18.44;30.72
54876;BME280;40764;48.472;8.166;2023-03-18T12:34:00;97777.19;;;17.78;29.70
54876;BME280;40764;48.472;8.166;2023-03-18T12:40:22;97775.16;;;17.91;29.89
54876;BME280;40764;48.472;8.166;2023-03-18T12:46:41;97780.31;;;17.77;30.10
54876;BME280;40764;48.472;8.166;2023-03-18T12:53:02;97772.75;;;17.89;29.88
54876;BME280;40764;48.472;8.166;2023-03-18T12:59:10;97776.44;;;17.53;30.93
54876;BME280;40764;48.472;8.166;2023-03-18T13:18:38;97764.25;;;17.54;32.95
54876;BME280;40764;48.472;8.166;2023-03-18T13:25:02;97759.56;;;17.43;31.19
54876;BME280;40764;48.472;8.166;2023-03-18T13:43:44;97758.81;;;17.58;31.82
54876;BME280;40764;48.472;8.166;2023-03-18T13:49:48;97752.06;;;17.83;32.00
54876;BME280;40764;48.472;8.166;2023-03-18T14:08:43;97750.53;;;17.58;32.66
54876;BME280;40764;48.472;8.166;2023-03-18T14:20:53;97739.69;;;18.09;31.47
54876;BME280;40764;48.472;8.166;2023-03-18T14:39:38;97727.84;;;18.40;32.79
54876;BME280;40764;48.472;8.166;2023-03-18T14:45:46;97722.84;;;17.98;32.95
54876;BME280;40764;48.472;8.166;2023-03-18T14:51:50;97717.91;;;17.63;32.29
54876;BME280;40764;48.472;8.166;2023-03-18T14:57:51;97718.78;;;17.52;32.81
54876;BME280;40764;48.472;8.166;2023-03-18T15:03:52;97711.28;;;17.52;32.22
54876;BME280;40764;48.472;8.166;2023-03-18T15:09:54;97720.94;;;17.58;32.45
54876;BME280;40764;48.472;8.166;2023-03-18T15:15:56;97708.94;;;17.67;31.76
54876;BME280;40764;48.472;8.166;2023-03-18T15:21:57;97711.19;;;17.49;32.31
54876;BME280;40764;48.472;8.166;2023-03-18T15:28:02;97708.25;;;17.42;32.56
54876;BME280;40764;48.472;8.166;2023-03-18T15:34:13;97707.03;;;17.27;31.54
54876;BME280;40764;48.472;8.166;2023-03-18T15:40:30;97703.97;;;17.16;32.18
54876;BME280;40764;48.472;8.166;2023-03-18T15:46:31;97714.22;;;17.03;32.75
54876;BME280;40764;48.472;8.166;2023-03-18T15:52:34;97708.97;;;16.86;33.60
54876;BME280;40764;48.472;8.166;2023-03-18T15:58:38;97716.13;;;16.75;34.15
54876;BME280;40764;48.472;8.166;2023-03-18T16:04:38;97720.28;;;16.69;34.67
54876;BME280;40764;48.472;8.166;2023-03-18T16:10:39;97726.13;;;16.67;35.53
54876;BME280;40764;48.472;8.166;2023-03-18T16:16:40;97731.75;;;16.22;41.30
54876;BME280;40764;48.472;8.166;2023-03-18T16:22:40;97721.84;;;16.09;41.60
54876;BME280;40764;48.472;8.166;2023-03-18T16:28:42;97739.72;;;15.58;45.40
54876;BME280;40764;48.472;8.166;2023-03-18T16:34:42;97736.44;;;15.43;47.52
54876;BME280;40764;48.472;8.166;2023-03-18T16:40:43;97748.16;;;15.19;48.47
54876;BME280;40764;48.472;8.166;2023-03-18T16:46:47;97751.22;;;14.97;49.21
54876;BME280;40764;48.472;8.166;2023-03-18T16:52:49;97759.47;;;14.97;49.53
54876;BME280;40764;48.472;8.166;2023-03-18T16:58:49;97767.09;;;14.71;50.26
54876;BME280;40764;48.472;8.166;2023-03-18T17:04:51;97771.84;;;14.62;51.56
54876;BME280;40764;48.472;8.166;2023-03-18T17:10:57;97775.72;;;14.22;53.73
54876;BME280;40764;48.472;8.166;2023-03-18T17:17:01;97780.34;;;13.92;53.36
54876;BME280;40764;48.472;8.166;2023-03-18T17:23:02;97791.38;;;13.58;54.04
54876;BME280;40764;48.472;8.166;2023-03-18T17:29:03;97794.13;;;13.41;54.86
54876;BME280;40764;48.472;8.166;2023-03-18T17:35:11;97803.94;;;13.07;56.19
54876;BME280;40764;48.472;8.166;2023-03-18T17:41:22;97811.94;;;12.78;57.82
54876;BME280;40764;48.472;8.166;2023-03-18T17:47:22;97807.16;;;12.44;59.21
54876;BME280;40764;48.472;8.166;2023-03-18T17:53:34;97811.78;;;12.34;59.80
54876;BME280;40764;48.472;8.166;2023-03-18T17:59:36;97819.13;;;12.17;60.40
54876;BME280;40764;48.472;8.166;2023-03-18T18:05:36;97814.47;;;11.72;61.87
54876;BME280;40764;48.472;8.166;2023-03-18T18:11:39;97822.56;;;11.55;62.20
54876;BME280;40764;48.472;8.166;2023-03-18T18:17:43;97827.13;;;11.60;61.94
54876;BME280;40764;48.472;8.166;2023-03-18T18:23:43;97830.34;;;11.39;62.68
54876;BME280;40764;48.472;8.166;2023-03-18T18:29:44;97828.03;;;11.33;63.06
54876;BME280;40764;48.472;8.166;2023-03-18T18:35:45;97833.44;;;11.10;63.81
54876;BME280;40764;48.472;8.166;2023-03-18T18:41:45;97831.03;;;11.09;63.61
54876;BME280;40764;48.472;8.166;2023-03-18T18:47:45;97827.22;;;10.82;64.34
54876;BME280;40764;48.472;8.166;2023-03-18T18:53:47;97842.53;;;10.70;65.11
54876;BME280;40764;48.472;8.166;2023-03-18T18:59:48;97843.03;;;10.72;64.88
54876;BME280;40764;48.472;8.166;2023-03-18T19:05:50;97849.38;;;10.67;63.76
54876;BME280;40764;48.472;8.166;2023-03-18T19:11:52;97848.28;;;10.54;64.44
54876;BME280;40764;48.472;8.166;2023-03-18T19:17:52;97844.16;;;10.43;65.47
54876;BME280;40764;48.472;8.166;2023-03-18T19:23:53;97854.94;;;10.35;65.69
54876;BME280;40764;48.472;8.166;2023-03-18T19:29:58;97868.09;;;10.33;65.97
54876;BME280;40764;48.472;8.166;2023-03-18T19:36:00;97866.50;;;9.99;66.94
54876;BME280;40764;48.472;8.166;2023-03-18T19:42:02;97869.59;;;9.92;67.81
54876;BME280;40764;48.472;8.166;2023-03-18T19:48:03;97861.84;;;10.00;67.61
54876;BME280;40764;48.472;8.166;2023-03-18T19:54:29;97871.03;;;10.04;67.07
54876;BME280;40764;48.472;8.166;2023-03-18T20:00:31;97872.13;;;9.89;67.28
54876;BME280;40764;48.472;8.166;2023-03-18T20:06:31;97883.13;;;9.84;68.19
54876;BME280;40764;48.472;8.166;2023-03-18T20:12:37;97891.16;;;9.75;68.70
54876;BME280;40764;48.472;8.166;2023-03-18T20:18:37;97878.59;;;9.60;69.43
54876;BME280;40764;48.472;8.166;2023-03-18T20:24:38;97876.50;;;9.52;71.18
54876;BME280;40764;48.472;8.166;2023-03-18T20:30:39;97889.03;;;9.72;71.72
54876;BME280;40764;48.472;8.166;2023-03-18T20:36:40;97898.63;;;9.88;70.10
54876;BME280;40764;48.472;8.166;2023-03-18T20:42:41;97898.84;;;9.92;69.97
54876;BME280;40764;48.472;8.166;2023-03-18T20:48:42;97901.44;;;9.83;70.96
54876;BME280;40764;48.472;8.166;2023-03-18T20:54:43;97898.59;;;9.56;72.82
54876;BME280;40764;48.472;8.166;2023-03-18T21:00:44;97909.97;;;9.77;72.74
54876;BME280;40764;48.472;8.166;2023-03-18T21:06:46;97901.66;;;9.68;72.05
54876;BME280;40764;48.472;8.166;2023-03-18T21:12:47;97907.81;;;9.60;73.39
54876;BME280;40764;48.472;8.166;2023-03-18T21:18:48;97914.59;;;9.62;73.27
54876;BME280;40764;48.472;8.166;2023-03-18T21:24:49;97922.19;;;9.66;72.94
54876;BME280;40764;48.472;8.166;2023-03-18T21:30:51;97926.97;;;9.55;73.45
54876;BME280;40764;48.472;8.166;2023-03-18T21:36:52;97929.41;;;9.56;74.12
54876;BME280;40764;48.472;8.166;2023-03-18T21:42:52;97932.13;;;9.38;75.22
54876;BME280;40764;48.472;8.166;2023-03-18T21:48:52;97936.91;;;9.46;74.67
54876;BME280;40764;48.472;8.166;2023-03-18T21:54:53;97932.34;;;9.60;73.66
54876;BME280;40764;48.472;8.166;2023-03-18T22:00:56;97933.44;;;9.78;72.57
54876;BME280;40764;48.472;8.166;2023-03-18T22:06:56;97930.66;;;9.64;73.55
54876;BME280;40764;48.472;8.166;2023-03-18T22:12:57;97936.03;;;9.50;74.68
54876;BME280;40764;48.472;8.166;2023-03-18T22:18:57;97938.63;;;9.60;74.22
54876;BME280;40764;48.472;8.166;2023-03-18T22:24:57;97938.94;;;9.59;73.91
54876;BME280;40764;48.472;8.166;2023-03-18T22:30:59;97942.16;;;9.61;73.79
54876;BME280;40764;48.472;8.166;2023-03-18T22:36:59;97933.06;;;9.47;74.24
54876;BME280;40764;48.472;8.166;2023-03-18T22:43:00;97930.34;;;9.47;74.78
54876;BME280;40764;48.472;8.166;2023-03-18T22:49:01;97946.06;;;9.74;73.59
54876;BME280;40764;48.472;8.166;2023-03-18T22:55:27;97928.59;;;9.56;74.69
54876;BME280;40764;48.472;8.166;2023-03-18T23:01:29;97922.97;;;9.47;73.92
54876;BME280;40764;48.472;8.166;2023-03-18T23:07:30;97927.84;;;9.50;75.00
54876;BME280;40764;48.472;8.166;2023-03-18T23:13:38;97914.06;;;9.42;74.44
54876;BME280;40764;48.472;8.166;2023-03-18T23:19:39;97927.53;;;9.52;74.93
54876;BME280;40764;48.472;8.166;2023-03-18T23:25:40;97929.16;;;9.53;74.86
54876;BME280;40764;48.472;8.166;2023-03-18T23:31:41;97935.38;;;9.40;75.29
54876;BME280;40764;48.472;8.166;2023-03-18T23:37:41;97935.34;;;9.21;76.25
54876;BME280;40764;48.472;8.166;2023-03-18T23:43:41;97939.72;;;9.41;75.74
54876;BME280;40764;48.472;8.166;2023-03-18T23:49:42;97947.81;;;9.46;75.51
54876;BME280;40764;48.472;8.166;2023-03-18T23:55:42;97947.47;;;9.34;76.49
